sensor_id;sensor_type;location;lat;lon;timestamp;P1;durP1;ratioP1;P2;durP2;ratioP2
56860;SDS011;42744;51.094;3.490;2023-07-20T00:02:14;7.63;;;4.43;;
56860;SDS011;42744;51.094;3.490;2023-07-20T00:04:41;9.07;;;4.90;;
56860;SDS011;42744;51.094;3.490;2023-07-20T00:07:07;9.87;;;4.80;;
56860;SDS011;42744;51.094;3.490;2023-07-20T00:09:32;7.00;;;4.33;;
56860;SDS011;42744;51.094;3.490;2023-07-20T00:11:59;9.20;;;5.30;;
56860;SDS011;42744;51.094;3.490;2023-07-20T00:14:25;8.70;;;4.77;;
56860;SDS011;42744;51.094;3.490;2023-07-20T00:16:51;9.23;;;4.77;;
56860;SDS011;42744;51.094;3.490;2023-07-20T00:19:26;7.03;;;4.37;;
56860;SDS011;42744;51.094;3.490;2023-07-20T00:21:53;7.13;;;4.37;;
56860;SDS011;42744;51.094;3.490;2023-07-20T00:24:20;7.57;;;4.43;;
56860;SDS011;42744;51.094;3.490;2023-07-20T00:26:46;11.63;;;5.23;;
56860;SDS011;42744;51.094;3.490;2023-07-20T00:29:13;10.57;;;5.43;;
56860;SDS011;42744;51.094;3.490;2023-07-20T00:31:39;9.30;;;4.87;;
56860;SDS011;42744;51.094;3.490;2023-07-20T00:34:05;10.90;;;5.33;;
56860;SDS011;42744;51.094;3.490;2023-07-20T00:36:32;9.53;;;5.00;;
56860;SDS011;42744;51.094;3.490;2023-07-20T00:39:00;10.70;;;4.83;;
56860;SDS011;42744;51.094;3.490;2023-07-20T00:41:28;6.90;;;4.87;;
56860;SDS011;42744;51.094;3.490;2023-07-20T00:43:55;9.37;;;5.30;;
56860;SDS011;42744;51.094;3.490;2023-07-20T00:46:22;6.17;;;4.60;;
56860;SDS011;42744;51.094;3.490;2023-07-20T00:48:52;8.60;;;5.47;;
56860;SDS011;42744;51.094;3.490;2023-07-20T00:51:19;9.57;;;4.67;;
56860;SDS011;42744;51.094;3.490;2023-07-20T00:53:47;7.83;;;5.43;;
56860;SDS011;42744;51.094;3.490;2023-07-20T00:56:14;9.00;;;5.53;;
56860;SDS011;42744;51.094;3.490;2023-07-20T00:58:41;10.73;;;5.20;;
56860;SDS011;42744;51.094;3.490;2023-07-20T01:01:07;9.37;;;5.73;;
56860;SDS011;42744;51.094;3.490;2023-07-20T01:03:33;9.77;;;5.57;;
56860;SDS011;42744;51.094;3.490;2023-07-20T01:06:02;9.20;;;5.23;;
56860;SDS011;42744;51.094;3.490;2023-07-20T01:14:05;10.23;;;6.27;;
56860;SDS011;42744;51.094;3.490;2023-07-20T01:16:32;7.57;;;5.27;;
56860;SDS011;42744;51.094;3.490;2023-07-20T01:18:59;7.83;;;5.67;;
56860;SDS011;42744;51.094;3.490;2023-07-20T01:21:34;11.07;;;5.93;;
56860;SDS011;42744;51.094;3.490;2023-07-20T01:32:42;12.83;;;5.90;;
56860;SDS011;42744;51.094;3.490;2023-07-20T01:35:10;7.83;;;5.90;;
56860;SDS011;42744;51.094;3.490;2023-07-20T01:37:45;9.10;;;6.07;;
56860;SDS011;42744;51.094;3.490;2023-07-20T01:40:13;8.80;;;5.93;;
56860;SDS011;42744;51.094;3.490;2023-07-20T01:42:49;11.23;;;6.47;;
56860;SDS011;42744;51.094;3.490;2023-07-20T01:45:16;9.10;;;6.63;;
56860;SDS011;42744;51.094;3.490;2023-07-20T01:47:42;9.90;;;6.53;;
56860;SDS011;42744;51.094;3.490;2023-07-20T01:50:09;10.23;;;6.73;;
56860;SDS011;42744;51.094;3.490;2023-07-20T01:52:35;9.87;;;6.30;;
56860;SDS011;42744;51.094;3.490;2023-07-20T01:55:02;9.77;;;6.90;;
56860;SDS011;42744;51.094;3.490;2023-07-20T01:57:30;11.53;;;6.93;;
56860;SDS011;42744;51.094;3.490;2023-07-20T01:59:57;12.50;;;6.83;;
56860;SDS011;42744;51.094;3.490;2023-07-20T02:02:26;10.57;;;6.30;;
56860;SDS011;42744;51.094;3.490;2023-07-20T02:04:53;9.17;;;6.97;;
56860;SDS011;42744;51.094;3.490;2023-07-20T02:07:19;8.57;;;6.47;;
56860;SDS011;42744;51.094;3.490;2023-07-20T02:09:45;9.50;;;6.07;;
56860;SDS011;42744;51.094;3.490;2023-07-20T02:12:12;8.37;;;6.50;;
56860;SDS011;42744;51.094;3.490;2023-07-20T02:14:38;8.37;;;6.87;;
56860;SDS011;42744;51.094;3.490;2023-07-20T02:17:04;9.90;;;6.93;;
56860;SDS011;42744;51.094;3.490;2023-07-20T02:19:30;11.23;;;7.20;;
56860;SDS011;42744;51.094;3.490;2023-07-20T02:21:56;9.07;;;7.07;;
56860;SDS011;42744;51.094;3.490;2023-07-20T02:24:23;8.90;;;6.77;;
56860;SDS011;42744;51.094;3.490;2023-07-20T02:26:50;12.27;;;7.70;;
56860;SDS011;42744;51.094;3.490;2023-07-20T02:29:16;12.27;;;7.43;;
56860;SDS011;42744;51.094;3.490;2023-07-20T02:31:42;9.73;;;7.00;;
56860;SDS011;42744;51.094;3.490;2023-07-20T02:34:09;8.93;;;7.03;;
56860;SDS011;42744;51.094;3.490;2023-07-20T02:36:35;8.67;;;6.60;;
56860;SDS011;42744;51.094;3.490;2023-07-20T02:39:01;9.53;;;6.30;;
56860;SDS011;42744;51.094;3.490;2023-07-20T02:41:30;12.10;;;6.40;;
56860;SDS011;42744;51.094;3.490;2023-07-20T02:43:58;9.37;;;7.23;;
56860;SDS011;42744;51.094;3.490;2023-07-20T02:46:24;10.40;;;7.10;;
56860;SDS011;42744;51.094;3.490;2023-07-20T02:48:50;13.23;;;7.73;;
56860;SDS011;42744;51.094;3.490;2023-07-20T02:51:16;10.13;;;6.70;;
56860;SDS011;42744;51.094;3.490;2023-07-20T02:53:42;9.33;;;7.10;;
56860;SDS011;42744;51.094;3.490;2023-07-20T02:56:08;9.37;;;6.53;;
56860;SDS011;42744;51.094;3.490;2023-07-20T02:58:34;11.83;;;7.47;;
56860;SDS011;42744;51.094;3.490;2023-07-20T03:01:02;9.33;;;6.67;;
56860;SDS011;42744;51.094;3.490;2023-07-20T03:03:28;9.07;;;6.67;;
56860;SDS011;42744;51.094;3.490;2023-07-20T03:05:54;10.23;;;7.23;;
56860;SDS011;42744;51.094;3.490;2023-07-20T03:08:22;8.90;;;7.07;;
56860;SDS011;42744;51.094;3.490;2023-07-20T03:10:49;9.60;;;7.33;;
56860;SDS011;42744;51.094;3.490;2023-07-20T03:13:15;13.00;;;7.10;;
56860;SDS011;42744;51.094;3.490;2023-07-20T03:15:41;10.97;;;7.03;;
56860;SDS011;42744;51.094;3.490;2023-07-20T03:18:08;11.00;;;7.60;;
56860;SDS011;42744;51.094;3.490;2023-07-20T03:20:35;10.10;;;7.23;;
56860;SDS011;42744;51.094;3.490;2023-07-20T03:23:01;11.00;;;7.20;;
56860;SDS011;42744;51.094;3.490;2023-07-20T03:25:28;9.13;;;7.00;;
56860;SDS011;42744;51.094;3.490;2023-07-20T03:27:54;10.30;;;7.77;;
56860;SDS011;42744;51.094;3.490;2023-07-20T03:30:20;9.43;;;6.60;;
56860;SDS011;42744;51.094;3.490;2023-07-20T03:32:47;7.93;;;6.73;;
56860;SDS011;42744;51.094;3.490;2023-07-20T03:35:14;18.93;;;7.80;;
56860;SDS011;42744;51.094;3.490;2023-07-20T03:37:41;9.50;;;7.40;;
56860;SDS011;42744;51.094;3.490;2023-07-20T03:40:07;11.33;;;7.23;;
56860;SDS011;42744;51.094;3.490;2023-07-20T03:42:34;11.77;;;7.27;;
56860;SDS011;42744;51.094;3.490;2023-07-20T03:45:00;8.27;;;6.73;;
56860;SDS011;42744;51.094;3.490;2023-07-20T03:47:26;10.80;;;7.43;;
56860;SDS011;42744;51.094;3.490;2023-07-20T03:49:52;10.20;;;7.60;;
56860;SDS011;42744;51.094;3.490;2023-07-20T03:52:18;8.07;;;6.30;;
56860;SDS011;42744;51.094;3.490;2023-07-20T03:54:44;10.23;;;7.33;;
56860;SDS011;42744;51.094;3.490;2023-07-20T03:57:11;9.80;;;7.47;;
56860;SDS011;42744;51.094;3.490;2023-07-20T03:59:37;9.17;;;6.87;;
56860;SDS011;42744;51.094;3.490;2023-07-20T04:02:04;9.67;;;7.43;;
56860;SDS011;42744;51.094;3.490;2023-07-20T04:04:31;8.70;;;6.90;;
56860;SDS011;42744;51.094;3.490;2023-07-20T04:06:57;8.73;;;7.23;;
56860;SDS011;42744;51.094;3.490;2023-07-20T04:09:23;8.87;;;7.37;;
56860;SDS011;42744;51.094;3.490;2023-07-20T04:11:49;12.40;;;8.13;;
56860;SDS011;42744;51.094;3.490;2023-07-20T04:14:15;11.73;;;7.37;;
56860;SDS011;42744;51.094;3.490;2023-07-20T04:16:41;11.10;;;7.90;;
56860;SDS011;42744;51.094;3.490;2023-07-20T04:19:10;11.07;;;7.53;;
56860;SDS011;42744;51.094;3.490;2023-07-20T04:21:39;8.57;;;7.13;;
56860;SDS011;42744;51.094;3.490;2023-07-20T04:24:06;10.57;;;7.10;;
56860;SDS011;42744;51.094;3.490;2023-07-20T04:26:33;7.40;;;6.70;;
56860;SDS011;42744;51.094;3.490;2023-07-20T04:28:59;9.23;;;7.03;;
56860;SDS011;42744;51.094;3.490;2023-07-20T04:31:27;9.70;;;7.33;;
56860;SDS011;42744;51.094;3.490;2023-07-20T04:33:53;11.97;;;8.40;;
56860;SDS011;42744;51.094;3.490;2023-07-20T04:36:19;7.77;;;6.83;;
56860;SDS011;42744;51.094;3.490;2023-07-20T04:38:45;12.50;;;8.03;;
56860;SDS011;42744;51.094;3.490;2023-07-20T04:41:13;8.60;;;7.20;;
56860;SDS011;42744;51.094;3.490;2023-07-20T04:43:41;9.20;;;7.23;;
56860;SDS011;42744;51.094;3.490;2023-07-20T04:46:09;9.30;;;8.20;;
56860;SDS011;42744;51.094;3.490;2023-07-20T04:48:36;9.70;;;7.20;;
56860;SDS011;42744;51.094;3.490;2023-07-20T04:51:02;9.50;;;8.00;;
56860;SDS011;42744;51.094;3.490;2023-07-20T04:53:31;14.90;;;7.73;;
56860;SDS011;42744;51.094;3.490;2023-07-20T04:55:57;10.07;;;7.63;;
56860;SDS011;42744;51.094;3.490;2023-07-20T04:58:23;10.87;;;7.97;;
56860;SDS011;42744;51.094;3.490;2023-07-20T05:00:50;10.63;;;8.13;;
56860;SDS011;42744;51.094;3.490;2023-07-20T05:03:17;12.70;;;7.53;;
56860;SDS011;42744;51.094;3.490;2023-07-20T05:05:44;11.10;;;8.33;;
56860;SDS011;42744;51.094;3.490;2023-07-20T05:08:10;9.53;;;8.53;;
56860;SDS011;42744;51.094;3.490;2023-07-20T05:10:36;9.63;;;7.73;;
56860;SDS011;42744;51.094;3.490;2023-07-20T05:13:02;10.60;;;8.00;;
56860;SDS011;42744;51.094;3.490;2023-07-20T05:15:28;9.13;;;8.00;;
56860;SDS011;42744;51.094;3.490;2023-07-20T05:17:55;10.27;;;8.70;;
56860;SDS011;42744;51.094;3.490;2023-07-20T05:20:22;11.40;;;8.57;;
56860;SDS011;42744;51.094;3.490;2023-07-20T05:22:48;9.53;;;8.23;;
56860;SDS011;42744;51.094;3.490;2023-07-20T05:25:14;11.77;;;9.10;;
56860;SDS011;42744;51.094;3.490;2023-07-20T05:27:43;9.67;;;8.40;;
56860;SDS011;42744;51.094;3.490;2023-07-20T05:30:09;8.90;;;8.00;;
56860;SDS011;42744;51.094;3.490;2023-07-20T05:32:35;9.47;;;7.80;;
56860;SDS011;42744;51.094;3.490;2023-07-20T05:35:01;10.83;;;8.33;;
56860;SDS011;42744;51.094;3.490;2023-07-20T05:37:27;9.07;;;8.17;;
56860;SDS011;42744;51.094;3.490;2023-07-20T05:39:54;11.37;;;9.03;;
56860;SDS011;42744;51.094;3.490;2023-07-20T05:42:20;9.20;;;8.30;;
56860;SDS011;42744;51.094;3.490;2023-07-20T05:44:46;11.20;;;8.20;;
56860;SDS011;42744;51.094;3.490;2023-07-20T05:47:13;10.20;;;7.87;;
56860;SDS011;42744;51.094;3.490;2023-07-20T05:49:39;10.37;;;8.20;;
56860;SDS011;42744;51.094;3.490;2023-07-20T05:52:05;9.53;;;8.43;;
56860;SDS011;42744;51.094;3.490;2023-07-20T05:54:32;12.20;;;8.23;;
56860;SDS011;42744;51.094;3.490;2023-07-20T05:56:58;9.97;;;7.27;;
56860;SDS011;42744;51.094;3.490;2023-07-20T05:59:27;11.97;;;8.90;;
56860;SDS011;42744;51.094;3.490;2023-07-20T06:01:55;10.60;;;8.30;;
56860;SDS011;42744;51.094;3.490;2023-07-20T06:04:21;11.17;;;8.20;;
56860;SDS011;42744;51.094;3.490;2023-07-20T06:06:49;9.53;;;7.77;;
56860;SDS011;42744;51.094;3.490;2023-07-20T06:09:15;9.43;;;7.80;;
56860;SDS011;42744;51.094;3.490;2023-07-20T06:11:41;8.10;;;7.30;;
56860;SDS011;42744;51.094;3.490;2023-07-20T06:14:07;8.37;;;6.90;;
56860;SDS011;42744;51.094;3.490;2023-07-20T06:16:33;9.07;;;6.43;;
56860;SDS011;42744;51.094;3.490;2023-07-20T06:19:00;6.60;;;5.70;;
56860;SDS011;42744;51.094;3.490;2023-07-20T06:21:26;9.87;;;7.37;;
56860;SDS011;42744;51.094;3.490;2023-07-20T06:23:52;8.53;;;6.00;;
56860;SDS011;42744;51.094;3.490;2023-07-20T06:26:18;9.13;;;6.60;;
56860;SDS011;42744;51.094;3.490;2023-07-20T06:28:45;5.50;;;4.90;;
56860;SDS011;42744;51.094;3.490;2023-07-20T06:31:11;13.97;;;5.00;;
56860;SDS011;42744;51.094;3.490;2023-07-20T06:33:37;6.17;;;4.50;;
56860;SDS011;42744;51.094;3.490;2023-07-20T06:36:03;8.60;;;4.87;;
56860;SDS011;42744;51.094;3.490;2023-07-20T06:38:29;7.33;;;5.23;;
56860;SDS011;42744;51.094;3.490;2023-07-20T06:40:56;6.60;;;5.90;;
56860;SDS011;42744;51.094;3.490;2023-07-20T06:43:23;5.27;;;4.77;;
56860;SDS011;42744;51.094;3.490;2023-07-20T06:45:52;9.70;;;5.00;;
56860;SDS011;42744;51.094;3.490;2023-07-20T06:48:22;5.37;;;4.13;;
56860;SDS011;42744;51.094;3.490;2023-07-20T06:50:48;5.47;;;3.67;;
56860;SDS011;42744;51.094;3.490;2023-07-20T06:53:13;3.67;;;3.23;;
56860;SDS011;42744;51.094;3.490;2023-07-20T06:55:41;4.60;;;3.10;;
56860;SDS011;42744;51.094;3.490;2023-07-20T06:58:07;3.77;;;3.47;;
56860;SDS011;42744;51.094;3.490;2023-07-20T07:00:33;4.10;;;3.20;;
56860;SDS011;42744;51.094;3.490;2023-07-20T07:03:00;4.67;;;3.50;;
56860;SDS011;42744;51.094;3.490;2023-07-20T07:05:26;3.20;;;2.90;;
56860;SDS011;42744;51.094;3.490;2023-07-20T07:07:52;3.17;;;2.80;;
56860;SDS011;42744;51.094;3.490;2023-07-20T07:10:18;2.70;;;2.27;;
56860;SDS011;42744;51.094;3.490;2023-07-20T07:12:44;2.50;;;2.10;;
56860;SDS011;42744;51.094;3.490;2023-07-20T07:15:10;2.03;;;1.33;;
56860;SDS011;42744;51.094;3.490;2023-07-20T07:17:36;2.60;;;1.37;;
56860;SDS011;42744;51.094;3.490;2023-07-20T07:20:03;1.43;;;1.27;;
56860;SDS011;42744;51.094;3.490;2023-07-20T07:22:29;2.73;;;1.40;;
56860;SDS011;42744;51.094;3.490;2023-07-20T07:24:56;3.73;;;1.63;;
56860;SDS011;42744;51.094;3.490;2023-07-20T07:27:22;2.47;;;1.20;;
56860;SDS011;42744;51.094;3.490;2023-07-20T07:29:48;1.70;;;1.60;;
56860;SDS011;42744;51.094;3.490;2023-07-20T07:32:15;1.53;;;1.43;;
56860;SDS011;42744;51.094;3.490;2023-07-20T07:34:41;2.47;;;1.90;;
56860;SDS011;42744;51.094;3.490;2023-07-20T07:37:07;1.63;;;1.30;;
56860;SDS011;42744;51.094;3.490;2023-07-20T07:39:33;1.70;;;1.37;;
56860;SDS011;42744;51.094;3.490;2023-07-20T07:41:59;1.60;;;1.30;;
56860;SDS011;42744;51.094;3.490;2023-07-20T07:44:28;1.80;;;1.50;;
56860;SDS011;42744;51.094;3.490;2023-07-20T07:46:57;1.60;;;1.50;;
56860;SDS011;42744;51.094;3.490;2023-07-20T08:05:21;2.53;;;1.80;;
56860;SDS011;42744;51.094;3.490;2023-07-20T08:08:05;2.00;;;1.70;;
56860;SDS011;42744;51.094;3.490;2023-07-20T08:10:34;2.00;;;1.80;;
56860;SDS011;42744;51.094;3.490;2023-07-20T08:13:00;3.33;;;2.03;;
56860;SDS011;42744;51.094;3.490;2023-07-20T08:15:26;2.20;;;2.00;;
56860;SDS011;42744;51.094;3.490;2023-07-20T08:17:52;2.10;;;1.90;;
56860;SDS011;42744;51.094;3.490;2023-07-20T08:20:19;1.70;;;1.50;;
56860;SDS011;42744;51.094;3.490;2023-07-20T08:22:48;2.73;;;1.70;;
56860;SDS011;42744;51.094;3.490;2023-07-20T08:25:14;1.70;;;1.30;;
56860;SDS011;42744;51.094;3.490;2023-07-20T08:27:41;3.03;;;1.60;;
56860;SDS011;42744;51.094;3.490;2023-07-20T08:30:07;1.70;;;1.37;;
56860;SDS011;42744;51.094;3.490;2023-07-20T08:32:33;2.07;;;1.70;;
56860;SDS011;42744;51.094;3.490;2023-07-20T08:35:00;1.50;;;1.40;;
56860;SDS011;42744;51.094;3.490;2023-07-20T08:37:26;1.37;;;1.27;;
56860;SDS011;42744;51.094;3.490;2023-07-20T08:39:52;1.30;;;1.20;;
56860;SDS011;42744;51.094;3.490;2023-07-20T08:42:18;2.63;;;1.20;;
56860;SDS011;42744;51.094;3.490;2023-07-20T08:44:48;3.57;;;1.20;;
56860;SDS011;42744;51.094;3.490;2023-07-20T08:47:15;1.23;;;1.10;;
56860;SDS011;42744;51.094;3.490;2023-07-20T08:49:42;1.70;;;1.60;;
56860;SDS011;42744;51.094;3.490;2023-07-20T08:52:08;1.67;;;1.10;;
56860;SDS011;42744;51.094;3.490;2023-07-20T08:54:38;0.97;;;0.80;;
56860;SDS011;42744;51.094;3.490;2023-07-20T08:57:05;2.47;;;1.10;;
56860;SDS011;42744;51.094;3.490;2023-07-20T08:59:32;1.70;;;1.43;;
56860;SDS011;42744;51.094;3.490;2023-07-20T09:02:02;1.90;;;1.60;;
56860;SDS011;42744;51.094;3.490;2023-07-20T09:04:29;1.77;;;1.20;;
56860;SDS011;42744;51.094;3.490;2023-07-20T09:06:55;3.67;;;1.40;;
56860;SDS011;42744;51.094;3.490;2023-07-20T09:09:22;2.10;;;1.43;;
56860;SDS011;42744;51.094;3.490;2023-07-20T09:11:48;1.97;;;1.30;;
56860;SDS011;42744;51.094;3.490;2023-07-20T09:14:15;1.50;;;1.00;;
56860;SDS011;42744;51.094;3.490;2023-07-20T09:16:48;1.40;;;1.20;;
56860;SDS011;42744;51.094;3.490;2023-07-20T09:19:16;1.70;;;1.60;;
56860;SDS011;42744;51.094;3.490;2023-07-20T09:21:49;1.70;;;1.20;;
56860;SDS011;42744;51.094;3.490;2023-07-20T09:24:17;1.42;;;1.27;;
56860;SDS011;42744;51.094;3.490;2023-07-20T09:26:45;1.20;;;1.10;;
56860;SDS011;42744;51.094;3.490;2023-07-20T09:29:19;1.70;;;1.50;;
56860;SDS011;42744;51.094;3.490;2023-07-20T09:31:58;2.22;;;1.70;;
56860;SDS011;42744;51.094;3.490;2023-07-20T09:34:26;3.30;;;1.23;;
56860;SDS011;42744;51.094;3.490;2023-07-20T09:36:58;1.57;;;1.47;;
56860;SDS011;42744;51.094;3.490;2023-07-20T09:39:46;2.30;;;1.50;;
56860;SDS011;42744;51.094;3.490;2023-07-20T09:42:12;3.00;;;1.50;;
56860;SDS011;42744;51.094;3.490;2023-07-20T09:44:46;1.62;;;1.20;;
56860;SDS011;42744;51.094;3.490;2023-07-20T09:47:20;3.35;;;1.95;;
56860;SDS011;42744;51.094;3.490;2023-07-20T09:49:48;1.77;;;1.60;;
56860;SDS011;42744;51.094;3.490;2023-07-20T09:52:14;1.70;;;1.60;;
56860;SDS011;42744;51.094;3.490;2023-07-20T09:54:41;4.28;;;1.98;;
56860;SDS011;42744;51.094;3.490;2023-07-20T09:57:11;2.30;;;1.70;;
56860;SDS011;42744;51.094;3.490;2023-07-20T09:59:39;2.17;;;1.98;;
56860;SDS011;42744;51.094;3.490;2023-07-20T10:02:07;2.00;;;1.80;;
56860;SDS011;42744;51.094;3.490;2023-07-20T10:05:01;2.15;;;1.70;;
56860;SDS011;42744;51.094;3.490;2023-07-20T10:07:29;2.37;;;1.80;;
56860;SDS011;42744;51.094;3.490;2023-07-20T10:09:56;2.08;;;1.52;;
56860;SDS011;42744;51.094;3.490;2023-07-20T10:12:27;8.20;;;1.50;;
56860;SDS011;42744;51.094;3.490;2023-07-20T10:15:03;3.90;;;1.77;;
56860;SDS011;42744;51.094;3.490;2023-07-20T10:20:40;2.55;;;1.70;;
56860;SDS011;42744;51.094;3.490;2023-07-20T10:23:07;5.93;;;2.03;;
56860;SDS011;42744;51.094;3.490;2023-07-20T10:25:34;4.25;;;1.75;;
56860;SDS011;42744;51.094;3.490;2023-07-20T10:28:05;1.95;;;1.70;;
56860;SDS011;42744;51.094;3.490;2023-07-20T10:30:35;1.80;;;1.60;;
56860;SDS011;42744;51.094;3.490;2023-07-20T10:33:02;2.05;;;1.85;;
56860;SDS011;42744;51.094;3.490;2023-07-20T10:35:29;2.85;;;1.40;;
56860;SDS011;42744;51.094;3.490;2023-07-20T10:38:00;2.08;;;1.40;;
56860;SDS011;42744;51.094;3.490;2023-07-20T10:40:34;1.50;;;1.30;;
56860;SDS011;42744;51.094;3.490;2023-07-20T10:43:05;1.85;;;1.35;;
56860;SDS011;42744;51.094;3.490;2023-07-20T10:45:53;3.10;;;1.75;;
56860;SDS011;42744;51.094;3.490;2023-07-20T10:48:23;2.05;;;1.48;;
56860;SDS011;42744;51.094;3.490;2023-07-20T10:53:42;1.77;;;1.20;;
56860;SDS011;42744;51.094;3.490;2023-07-20T10:56:09;1.42;;;1.10;;
56860;SDS011;42744;51.094;3.490;2023-07-20T10:58:39;2.15;;;1.95;;
56860;SDS011;42744;51.094;3.490;2023-07-20T11:01:06;1.77;;;1.30;;
56860;SDS011;42744;51.094;3.490;2023-07-20T11:03:34;2.15;;;1.50;;
56860;SDS011;42744;51.094;3.490;2023-07-20T11:11:41;2.92;;;1.70;;
56860;SDS011;42744;51.094;3.490;2023-07-20T11:14:20;3.30;;;2.35;;
56860;SDS011;42744;51.094;3.490;2023-07-20T11:16:48;2.67;;;1.60;;
56860;SDS011;42744;51.094;3.490;2023-07-20T11:21:52;2.10;;;1.70;;
56860;SDS011;42744;51.094;3.490;2023-07-20T11:24:19;2.75;;;2.55;;
56860;SDS011;42744;51.094;3.490;2023-07-20T11:29:15;3.10;;;2.47;;
56860;SDS011;42744;51.094;3.490;2023-07-20T11:31:43;3.35;;;2.33;;
56860;SDS011;42744;51.094;3.490;2023-07-20T11:34:12;3.70;;;2.70;;
56860;SDS011;42744;51.094;3.490;2023-07-20T11:36:43;2.60;;;2.25;;
56860;SDS011;42744;51.094;3.490;2023-07-20T11:39:11;3.10;;;2.80;;
56860;SDS011;42744;51.094;3.490;2023-07-20T11:41:38;3.10;;;2.80;;
56860;SDS011;42744;51.094;3.490;2023-07-20T11:44:10;4.57;;;2.67;;
56860;SDS011;42744;51.094;3.490;2023-07-20T11:46:38;2.55;;;2.35;;
56860;SDS011;42744;51.094;3.490;2023-07-20T11:49:05;3.55;;;2.55;;
56860;SDS011;42744;51.094;3.490;2023-07-20T11:51:32;3.67;;;2.60;;
56860;SDS011;42744;51.094;3.490;2023-07-20T11:53:58;4.80;;;1.85;;
56860;SDS011;42744;51.094;3.490;2023-07-20T11:56:26;3.97;;;2.30;;
56860;SDS011;42744;51.094;3.490;2023-07-20T11:58:56;2.53;;;2.33;;
56860;SDS011;42744;51.094;3.490;2023-07-20T12:01:25;3.78;;;2.83;;
56860;SDS011;42744;51.094;3.490;2023-07-20T12:03:55;4.07;;;2.22;;
56860;SDS011;42744;51.094;3.490;2023-07-20T12:06:25;2.78;;;1.42;;
56860;SDS011;42744;51.094;3.490;2023-07-20T12:08:56;3.50;;;2.40;;
56860;SDS011;42744;51.094;3.490;2023-07-20T12:11:33;3.15;;;2.50;;
56860;SDS011;42744;51.094;3.490;2023-07-20T12:14:00;3.50;;;2.33;;
56860;SDS011;42744;51.094;3.490;2023-07-20T12:16:27;2.40;;;2.10;;
56860;SDS011;42744;51.094;3.490;2023-07-20T12:19:00;2.95;;;1.90;;
56860;SDS011;42744;51.094;3.490;2023-07-20T12:21:31;2.05;;;1.67;;
56860;SDS011;42744;51.094;3.490;2023-07-20T12:23:59;2.45;;;1.77;;
56860;SDS011;42744;51.094;3.490;2023-07-20T12:26:25;1.77;;;1.55;;
56860;SDS011;42744;51.094;3.490;2023-07-20T12:28:54;2.17;;;1.92;;
56860;SDS011;42744;51.094;3.490;2023-07-20T12:31:20;2.15;;;1.80;;
56860;SDS011;42744;51.094;3.490;2023-07-20T12:33:48;2.83;;;1.67;;
56860;SDS011;42744;51.094;3.490;2023-07-20T12:36:14;2.65;;;1.60;;
56860;SDS011;42744;51.094;3.490;2023-07-20T12:38:40;3.17;;;1.85;;
56860;SDS011;42744;51.094;3.490;2023-07-20T12:41:07;1.70;;;1.30;;
56860;SDS011;42744;51.094;3.490;2023-07-20T12:43:35;3.08;;;1.60;;
56860;SDS011;42744;51.094;3.490;2023-07-20T12:46:01;2.42;;;1.33;;
56860;SDS011;42744;51.094;3.490;2023-07-20T12:48:27;3.20;;;1.50;;
56860;SDS011;42744;51.094;3.490;2023-07-20T12:50:53;1.70;;;1.10;;
56860;SDS011;42744;51.094;3.490;2023-07-20T12:53:20;2.30;;;1.70;;
56860;SDS011;42744;51.094;3.490;2023-07-20T12:55:46;3.08;;;2.00;;
56860;SDS011;42744;51.094;3.490;2023-07-20T12:58:13;2.15;;;1.70;;
56860;SDS011;42744;51.094;3.490;2023-07-20T13:00:39;2.03;;;1.92;;
56860;SDS011;42744;51.094;3.490;2023-07-20T13:03:05;4.65;;;1.98;;
56860;SDS011;42744;51.094;3.490;2023-07-20T13:05:34;3.47;;;1.67;;
56860;SDS011;42744;51.094;3.490;2023-07-20T13:08:01;2.60;;;1.45;;
56860;SDS011;42744;51.094;3.490;2023-07-20T13:10:27;4.03;;;1.80;;
56860;SDS011;42744;51.094;3.490;2023-07-20T13:12:54;2.15;;;1.65;;
56860;SDS011;42744;51.094;3.490;2023-07-20T13:15:20;2.33;;;1.37;;
56860;SDS011;42744;51.094;3.490;2023-07-20T13:17:46;1.87;;;1.55;;
56860;SDS011;42744;51.094;3.490;2023-07-20T13:20:13;2.08;;;1.80;;
56860;SDS011;42744;51.094;3.490;2023-07-20T13:22:39;1.70;;;1.60;;
56860;SDS011;42744;51.094;3.490;2023-07-20T13:25:08;2.87;;;1.70;;
56860;SDS011;42744;51.094;3.490;2023-07-20T13:27:35;7.00;;;2.53;;
56860;SDS011;42744;51.094;3.490;2023-07-20T13:30:02;2.72;;;2.10;;
56860;SDS011;42744;51.094;3.490;2023-07-20T13:32:31;2.30;;;1.92;;
56860;SDS011;42744;51.094;3.490;2023-07-20T13:34:58;4.50;;;2.75;;
56860;SDS011;42744;51.094;3.490;2023-07-20T13:37:24;3.33;;;2.85;;
56860;SDS011;42744;51.094;3.490;2023-07-20T13:39:50;3.33;;;2.85;;
56860;SDS011;42744;51.094;3.490;2023-07-20T13:42:16;3.90;;;3.47;;
56860;SDS011;42744;51.094;3.490;2023-07-20T13:44:43;4.60;;;3.58;;
56860;SDS011;42744;51.094;3.490;2023-07-20T13:47:09;4.03;;;3.35;;
56860;SDS011;42744;51.094;3.490;2023-07-20T13:49:35;5.18;;;3.97;;
56860;SDS011;42744;51.094;3.490;2023-07-20T13:52:02;4.60;;;3.60;;
56860;SDS011;42744;51.094;3.490;2023-07-20T13:54:28;4.25;;;3.47;;
56860;SDS011;42744;51.094;3.490;2023-07-20T13:56:54;3.80;;;3.40;;
56860;SDS011;42744;51.094;3.490;2023-07-20T13:59:20;5.62;;;3.65;;
56860;SDS011;42744;51.094;3.490;2023-07-20T14:01:46;4.68;;;3.83;;
56860;SDS011;42744;51.094;3.490;2023-07-20T14:04:13;4.30;;;3.90;;
56860;SDS011;42744;51.094;3.490;2023-07-20T14:06:38;6.43;;;4.05;;
56860;SDS011;42744;51.094;3.490;2023-07-20T14:09:04;5.97;;;3.87;;
56860;SDS011;42744;51.094;3.490;2023-07-20T14:11:31;4.65;;;4.10;;
56860;SDS011;42744;51.094;3.490;2023-07-20T14:13:57;5.15;;;4.62;;
56860;SDS011;42744;51.094;3.490;2023-07-20T14:16:23;5.07;;;4.47;;
56860;SDS011;42744;51.094;3.490;2023-07-20T14:18:50;5.20;;;4.78;;
56860;SDS011;42744;51.094;3.490;2023-07-20T14:21:17;9.20;;;4.50;;
56860;SDS011;42744;51.094;3.490;2023-07-20T14:23:47;7.62;;;5.03;;
56860;SDS011;42744;51.094;3.490;2023-07-20T14:26:21;5.90;;;5.40;;
56860;SDS011;42744;51.094;3.490;2023-07-20T14:28:47;7.25;;;5.20;;
56860;SDS011;42744;51.094;3.490;2023-07-20T14:31:13;6.68;;;5.03;;
56860;SDS011;42744;51.094;3.490;2023-07-20T14:33:39;6.82;;;5.37;;
56860;SDS011;42744;51.094;3.490;2023-07-20T14:36:05;6.05;;;4.93;;
56860;SDS011;42744;51.094;3.490;2023-07-20T14:38:31;6.43;;;5.28;;
56860;SDS011;42744;51.094;3.490;2023-07-20T14:40:59;6.97;;;5.40;;
56860;SDS011;42744;51.094;3.490;2023-07-20T14:43:25;5.83;;;5.33;;
56860;SDS011;42744;51.094;3.490;2023-07-20T14:45:51;6.63;;;5.80;;
56860;SDS011;42744;51.094;3.490;2023-07-20T14:48:17;6.67;;;5.97;;
56860;SDS011;42744;51.094;3.490;2023-07-20T14:50:43;8.30;;;6.50;;
56860;SDS011;42744;51.094;3.490;2023-07-20T14:53:12;6.57;;;5.97;;
56860;SDS011;42744;51.094;3.490;2023-07-20T14:55:39;6.27;;;5.67;;
56860;SDS011;42744;51.094;3.490;2023-07-20T14:58:07;6.77;;;6.00;;
56860;SDS011;42744;51.094;3.490;2023-07-20T15:00:33;6.90;;;5.73;;
56860;SDS011;42744;51.094;3.490;2023-07-20T15:02:59;6.90;;;6.20;;
56860;SDS011;42744;51.094;3.490;2023-07-20T15:05:25;6.17;;;5.60;;
56860;SDS011;42744;51.094;3.490;2023-07-20T15:07:52;6.13;;;5.63;;
56860;SDS011;42744;51.094;3.490;2023-07-20T15:10:19;6.27;;;5.63;;
56860;SDS011;42744;51.094;3.490;2023-07-20T15:12:45;6.67;;;6.07;;
56860;SDS011;42744;51.094;3.490;2023-07-20T15:15:12;6.40;;;5.90;;
56860;SDS011;42744;51.094;3.490;2023-07-20T15:17:39;6.33;;;5.77;;
56860;SDS011;42744;51.094;3.490;2023-07-20T15:20:08;6.50;;;5.90;;
56860;SDS011;42744;51.094;3.490;2023-07-20T15:22:36;7.73;;;6.40;;
56860;SDS011;42744;51.094;3.490;2023-07-20T15:25:05;6.40;;;5.80;;
56860;SDS011;42744;51.094;3.490;2023-07-20T15:27:32;6.23;;;5.63;;
56860;SDS011;42744;51.094;3.490;2023-07-20T15:29:58;7.23;;;6.30;;
56860;SDS011;42744;51.094;3.490;2023-07-20T15:32:25;6.20;;;5.60;;
56860;SDS011;42744;51.094;3.490;2023-07-20T15:34:51;5.85;;;5.28;;